• Join FlightAware (Why Join?)
  • Login
  • US Flag 
03:14PM EDT


 

Airport Tracker/Info


-or-


 

Live Flight TrackerFlight Track Log ✈ EJA831 ✈ 30-Apr-2014 ✈ KUDD - KBFI

Flight Track Log - Related Links

Times and Time Zones

All times are in EDT time to prevent confusion due to time zone crossing. See the EJA831 flight status page for this flight to view local times or setup timezone preferences in your user account.

Time Position Orientation Groundspeed Altitude Reporting Facility
EDT Latitude Longitude Course Direction KTS MPH feet Rate Location/Type
12:41PM 33.7689 -116.3058 342° North 162 186 16,000  Level Los Angeles Center
12:42PM 33.8147 -116.3375 330° Northwest 177 204 16,000 -3,180 Level Los Angeles Center
12:43PM 33.8642 -116.3658 335° Northwest 216 249 9,500 -1,860 Descending Los Angeles Center
12:45PM 33.9244 -116.4044 332° Northwest 240 276 12,200 2,460 Climbing Los Angeles Center
12:46PM 33.9897 -116.4475 331° Northwest 266 306 14,700 1,740 Climbing Los Angeles Center
12:47PM 34.2388 -116.5622 342° North  Level FlightAware Approximate
12:47PM 34.0789 -116.5044 332° Northwest 306 352 15,900  Level Los Angeles Center
12:48PM 34.1539 -116.5394 339° North 308 354 16,100 1,320 Climbing Los Angeles Center
12:49PM 34.2314 -116.5700 342° North 296 341 18,700 2,460 Climbing Los Angeles Center
12:50PM 34.2908 -116.6286 321° Northwest 306 352 21,300 2,040 Climbing Los Angeles Center
12:51PM 34.3158 -116.7250 287° West 299 344 23,000 1,680 Climbing Los Angeles Center
12:52PM 34.3469 -116.8558 286° West 334 384 24,900 1,740 Climbing Los Angeles Center
12:53PM 34.3728 -116.9653 286° West 338 389 26,700 1,560 Climbing Los Angeles Center
12:54PM 34.4000 -117.0758 287° West 340 391 28,200 1,440 Climbing Los Angeles Center
12:55PM 34.4269 -117.1911 286° West 349 402 29,700 1,440 Climbing Los Angeles Center
12:56PM 34.4536 -117.3033 286° West 349 402 31,200 1,440 Climbing Los Angeles Center
12:57PM 34.4803 -117.4169 286° West 349 402 32,700 1,560 Climbing Los Angeles Center
12:58PM 34.5119 -117.5525 286° West 349 402 34,500 1,620 Climbing Los Angeles Center
12:59PM 34.5381 -117.6642 286° West 348 400 36,100 1,500 Climbing Los Angeles Center
01:00PM 34.5628 -117.7739 285° West 342 394 37,600 1,440 Climbing Los Angeles Center
01:01PM 34.5869 -117.8794 286° West 331 381 39,100 1,140 Climbing Los Angeles Center
01:02PM 34.6111 -117.9831 286° West 321 369 40,000 420 Climbing Los Angeles Center
01:03PM 34.6481 -118.0881 293° West 346 398 40,000  Level Los Angeles Center
01:04PM 34.7117 -118.1803 310° West 352 405 40,000  Level Los Angeles Center
01:05PM 34.7906 -118.2961 310° West 367 422 40,000  Level Los Angeles Center
01:06PM 34.8581 -118.3933 310° West 372 428 40,000  Level Los Angeles Center
01:07PM 34.9214 -118.4853 310° West 376 433 40,000  Level Los Angeles Center
01:08PM 35.0092 -118.5986 313° West 382 440 40,000  Level Los Angeles Center
01:09PM 35.1069 -118.6450 339° North 386 444 40,000  Level Los Angeles Center
01:10PM 35.2089 -118.6797 344° North 382 440 40,000  Level Los Angeles Center
01:11PM 35.3117 -118.7122 346° North 383 441 40,000  Level Los Angeles Center
01:13PM 35.4147 -118.7447 346° North 383 441 40,000  Level Los Angeles Center
01:14PM 35.5375 -118.7833 346° North 380 437 40,000  Level Los Angeles Center
01:15PM 35.6386 -118.8161 345° North 380 437 40,000  Level Los Angeles Center
01:16PM 35.7392 -118.8494 345° North 378 435 40,000  Level Los Angeles Center
01:17PM 35.8403 -118.8806 346° North 378 435 40,000  Level Los Angeles Center
01:18PM 35.9417 -118.9147 345° North 378 435 40,000  Level Los Angeles Center
01:19PM 36.0636 -118.9536 346° North 377 434 40,000  Level Los Angeles Center
01:20PM 36.1647 -118.9867 345° North 377 434 40,000  Level Los Angeles Center
01:21PM 36.2450 -119.0117 346° North 378 435 40,000  Level Oakland Center
01:22PM 36.3472 -119.0458 345° North 380 437 40,000  Level Oakland Center
01:23PM 36.4483 -119.0789 345° North 380 437 40,000  Level Oakland Center
01:24PM 36.5500 -119.1117 345° North 379 436 40,000  Level Oakland Center
01:25PM 36.6511 -119.1450 345° North 378 435 40,000  Level Oakland Center
01:26PM 36.7744 -119.1861 345° North 381 438 40,000  Level Oakland Center
01:27PM 36.8764 -119.2200 345° North 381 438 40,000  Level Oakland Center
01:28PM 36.9786 -119.2528 346° North 379 436 40,000  Level Oakland Center
01:29PM 37.0814 -119.2872 345° North 381 438 40,000  Level Oakland Center
01:30PM 37.1836 -119.3219 345° North 381 438 40,000  Level Oakland Center
01:31PM 37.2856 -119.3564 345° North 381 438 40,000  Level Oakland Center
01:32PM 37.3881 -119.3903 345° North 381 438 40,000  Level Oakland Center
01:33PM 37.4897 -119.4250 345° North 381 438 40,000  Level Oakland Center
01:34PM 37.6131 -119.4656 345° North 380 437 40,000  Level Oakland Center
01:35PM 37.7089 -119.4992 344° North 381 438 40,000  Level Oakland Center
01:36PM 37.8111 -119.5331 345° North 381 438 40,000  Level Oakland Center
01:37PM 37.9139 -119.5689 345° North 381 438 40,000  Level Oakland Center
01:38PM 38.0150 -119.6044 345° North 380 437 40,000  Level Oakland Center
01:39PM 38.1186 -119.6383 346° North 381 438 40,000  Level Oakland Center
01:40PM 38.2431 -119.6800 345° North 383 441 40,000  Level Oakland Center
01:41PM 38.3458 -119.7164 344° North 383 441 40,000  Level Oakland Center
01:42PM 38.4469 -119.7514 345° North 383 441 40,000  Level Oakland Center
01:43PM 38.5514 -119.7867 345° North 385 443 40,000  Level Oakland Center
01:44PM 38.6556 -119.8239 344° North 385 443 40,000  Level Oakland Center
01:45PM 38.7586 -119.8597 345° North 385 443 40,000  Level Oakland Center
01:46PM 38.8622 -119.8961 345° North 385 443 40,000  Level Oakland Center
01:47PM 38.9681 -119.9325 345° North 385 443 40,000  Level Oakland Center
01:48PM 39.0942 -119.9767 345° North 387 445 40,000  Level Oakland Center
01:49PM 39.1992 -120.0144 344° North 387 445 40,000  Level Oakland Center
01:50PM 39.3053 -120.0519 345° North 389 448 40,000  Level Oakland Center
01:51PM 39.4100 -120.0894 345° North 390 449 40,000  Level Oakland Center
01:52PM 39.5117 -120.1250 345° North 390 449 40,000  Level Oakland Center
01:53PM 39.6156 -120.1617 345° North 389 448 40,000  Level Oakland Center
01:54PM 39.7178 -120.1989 344° North 387 445 40,000  Level Oakland Center
01:55PM 39.8414 -120.2431 345° North 384 442 40,000  Level Oakland Center
01:56PM 39.9436 -120.2803 344° North 384 442 40,000  Level Oakland Center
01:57PM 40.0517 -120.3181 345° North 383 441 40,000  Level Oakland Center
01:59PM 40.1542 -120.3564 344° North 383 441 40,000  Level Oakland Center
01:59PM 40.2469 -120.3883 345° North 384 442 40,000  Level Seattle Center
02:00PM 40.3475 -120.4253 344° North 382 440 40,000  Level Seattle Center
02:01PM 40.4392 -120.4603 344° North 383 441 40,000  Level Seattle Center
02:02PM 40.5419 -120.4969 345° North 383 441 40,000  Level Seattle Center
02:03PM 40.6433 -120.5350 344° North 383 441 40,000  Level Seattle Center
02:04PM 40.7661 -120.5806 344° North 382 440 40,000  Level Seattle Center
02:06PM 40.8931 -120.6261 345° North 383 441 40,000  Level Oakland Center
02:06PM 40.9708 -120.6567 343° North 382 440 40,000  Level Seattle Center
02:08PM 41.0731 -120.6958 344° North 383 441 40,000  Level Seattle Center
02:09PM 41.1739 -120.7342 344° North 380 437 40,000  Level Seattle Center
02:10PM 41.2769 -120.7742 344° North 386 444 40,000  Level Seattle Center
02:11PM 41.3797 -120.8119 345° North 385 443 40,000  Level Seattle Center
02:12PM 41.4814 -120.8519 344° North 384 442 40,000  Level Seattle Center
02:13PM 41.5828 -120.8897 344° North 383 441 40,000  Level Seattle Center
02:14PM 41.6844 -120.9292 344° North 382 440 40,000  Level Seattle Center
02:15PM 41.8067 -120.9750 344° North 381 438 40,000  Level Seattle Center
02:16PM 41.9083 -121.0142 344° North 382 440 40,000  Level Seattle Center
02:17PM 42.0086 -121.0531 344° North 378 435 40,000  Level Seattle Center
02:18PM 42.1103 -121.0906 345° North 378 435 40,000  Level Seattle Center
02:19PM 42.2114 -121.1325 343° North 383 441 40,000  Level Seattle Center
02:20PM 42.3133 -121.1711 344° North 385 443 40,000  Level Seattle Center
02:21PM 42.4139 -121.2106 344° North 381 438 40,000  Level Seattle Center
02:22PM 42.5153 -121.2497 344° North 379 436 40,000  Level Seattle Center
02:23PM 42.6167 -121.2900 344° North 380 437 40,000  Level Seattle Center
02:24PM 42.7406 -121.3394 344° North 384 442 40,000  Level Seattle Center
02:25PM 42.8425 -121.3819 343° North 386 444 40,000  Level Seattle Center
02:26PM 42.9458 -121.4206 345° North 386 444 40,000  Level Seattle Center
02:27PM 43.0486 -121.4633 343° North 386 444 40,000  Level Seattle Center
02:28PM 43.1517 -121.5047 344° North 386 444 40,000  Level Seattle Center
02:29PM 43.2550 -121.5456 344° North 386 444 40,000  Level Seattle Center
02:30PM 43.3583 -121.5872 344° North 386 444 40,000  Level Seattle Center
02:31PM 43.4606 -121.6283 344° North 386 444 40,000  Level Seattle Center
02:32PM 43.5633 -121.6711 343° North 385 443 40,000  Level Seattle Center
02:33PM 43.6661 -121.7111 344° North 385 443 40,000  Level Seattle Center
02:34PM 43.7908 -121.7617 344° North 385 443 40,000  Level Seattle Center
02:35PM 43.8833 -121.8011 343° North 387 445 40,000  Level Seattle Center
02:36PM 43.9894 -121.8453 343° North 391 450 40,000  Level Seattle Center
02:37PM 44.1097 -121.8914 345° North 392 451 40,000  Level Seattle Center
02:38PM 44.2150 -121.9344 344° North 393 452 40,000  Level Seattle Center
02:39PM 44.3192 -121.9797 343° North 393 452 40,000  Level Seattle Center
02:40PM 44.4231 -122.0217 344° North 391 450 40,000  Level Seattle Center
02:41PM 44.5286 -122.0661 343° North 393 452 40,000  Level Seattle Center
02:42PM 44.6447 -122.1161 343° North 397 457 40,000  Level Seattle Center
02:43PM 44.7517 -122.1603 344° North 400 460 40,000  Level Seattle Center
02:44PM 44.8567 -122.2053 343° North 396 456 40,000  Level Seattle Center
02:45PM 44.9478 -122.2453 343° North 386 444 40,000  Level Seattle Center
02:46PM 45.0528 -122.2889 344° North 389 448 40,000 -120 Level Seattle Center
02:47PM 45.1789 -122.3453 343° North 398 458 39,800 -960 Descending Seattle Center
02:48PM 45.2839 -122.3900 343° North 398 458 38,100 -1,620 Descending Seattle Center
02:49PM 45.3867 -122.4347 343° North 394 453 36,600 -1,620 Descending Seattle Center
02:50PM 45.4919 -122.4783 344° North 394 453 34,900 -1,680 Descending Seattle Center
02:51PM 45.5989 -122.5261 343° North 397 457 33,300 -1,560 Descending Seattle Center
02:52PM 45.7053 -122.5717 343° North 400 460 31,800 -1,560 Descending Seattle Center
02:53PM 45.8181 -122.6083 347° North 412 474 30,200 -1,680 Descending Seattle Center
02:54PM 45.9333 -122.6367 350° North 421 484 28,400 -1,800 Descending Seattle Center
02:55PM 46.0500 -122.6636 351° North 419 482 26,600 -1,980 Descending Seattle Center
02:56PM 46.1825 -122.6986 350° North 414 476 24,400 -1,920 Descending Seattle Center
02:57PM 46.2922 -122.7272 350° North 409 471 22,700 -1,680 Descending Seattle Center
02:58PM 46.4008 -122.7569 349° North 402 463 21,000 -1,680 Descending Seattle Center
02:59PM 46.5072 -122.7844 350° North 394 453 19,300 -1,680 Descending Seattle Center
03:00PM 46.6133 -122.8089 351° North 391 450 17,700 -1,500 Descending Seattle Center
03:02PM 46.7119 -122.8347 350° North 362 417 16,300 -1,680 Descending Seattle Center
03:02PM 46.7542 -122.8486 347° North 353 406 15,500 -1,920 Descending Seattle Center
03:02PM 46.7919 -122.8575 351° North 349 402 14,900 -1,620 Descending Seattle Center
03:03PM 46.8200 -122.8625 353° North 350 403 14,400 -1,560 Descending Seattle Center
03:04PM 46.8997 -122.8250 18° North 322 371 12,900 -1,500 Descending Seattle Center
03:04PM 46.9408 -122.7617 46° Northeast 308 354 11,800 -1,620 Descending Seattle Center
03:05PM 46.9592 -122.7336 46° Northeast 310 357 11,300 -1,560 Descending Seattle Center
03:05PM 47.0103 -122.6594 45° Northeast 304 350 10,100 -1,320 Descending Seattle Center
03:06PM 47.0183 -122.6450 51° Northeast 301 346 10,000 -1,320 Descending Seattle Center
03:06PM 47.0639 -122.5817 43° Northeast 269 310 8,800 -1,500 Descending Seattle Center
03:07PM 47.0758 -122.5628 47° Northeast 270 311 8,500 -1,500 Descending Seattle Center
03:07PM 47.1144 -122.5089 44° Northeast 245 282 7,300 -1,500 Descending Seattle Center
03:08PM 47.1256 -122.4936 43° Northeast 250 288 7,000 -1,320 Descending Seattle Center
03:08PM 47.1611 -122.4475 41° Northeast 228 262 6,000 -1,200 Descending Seattle Center
03:09PM 47.1728 -122.4314 43° Northeast 231 266 5,800 -1,500 Descending Seattle Center
03:09PM 47.2133 -122.3733 44° Northeast 242 278 4,500 -1,620 Descending Seattle Center
03:10PM 47.2214 -122.3625 42° Northeast 242 278 4,200 -420 Descending Seattle Center
03:10PM 47.2578 -122.3033 48° Northeast 238 274 4,100 -120 Descending Seattle Center
03:11PM 47.2733 -122.2928 25° Northeast 242 278 4,100  Level Seattle Center
03:11PM 47.3189 -122.2731 16° North 229 264 4,100 -240 Level Seattle Center
03:12PM 47.3336 -122.2675 14° North 229 264 3,900 -1,140 Descending Seattle Center
03:13PM 47.3758 -122.2514 14° North 210 242 3,000 -840 Descending Seattle Center
03:13PM 47.3897 -122.2464 14° North 211 243 3,100 -720 Climbing Seattle Center
03:14PM 47.4333 -122.2328 12° North 184 212 2,300 -1,020 Descending Seattle Center
03:14PM 47.4442 -122.2328 360° North 186 214 2,100 -780 Descending Seattle Center
03:14PM 47.4667 -122.2503 332° Northwest 126 145 1,600 -840 Descending Seattle Center
03:15PM 47.4764 -122.2594 327° Northwest 138 159 1,300 -900 Descending Seattle Center
03:15PM 47.4969 -122.2731 336° Northwest 107 123 700 -840 Descending Seattle Center
03:16PM 47.5044 -122.2806 326° Northwest 117 135 500 -600 Descending Seattle Center